Time;durP1;ratioP1;P1;durP2;ratioP2;P2;SDS_P1;SDS_P2;PMS_P1;PMS_P2;Temp;Humidity;BMP_temperature;BMP_pressure;BME280_temperature;BME280_humidity;BME280_pressure;Samples;Min_cycle;Max_cycle;Signal;HPM_P1;HPM_P2
2020/12/04 00:00:12;;;;;;;16.95;11.05;;;2.60;99.90;;;;;;4975961;28;20027;-80
2020/12/04 00:02:39;;;;;;;18.30;12.07;;;2.90;99.90;;;;;;4974837;28;20034;-77
2020/12/04 00:05:05;;;;;;;18.98;11.75;;;2.90;99.90;;;;;;4989547;28;20027;-77
2020/12/04 00:07:31;;;;;;;16.38;11.25;;;3.00;99.90;;;;;;4973824;28;20120;-79
2020/12/04 00:09:57;;;;;;;14.85;9.63;;;3.10;99.90;;;;;;4975668;28;20493;-76
2020/12/04 00:12:23;;;;;;;14.23;9.70;;;3.10;99.90;;;;;;4975929;28;20037;-80
2020/12/04 00:14:49;;;;;;;15.65;9.77;;;3.20;99.90;;;;;;4974474;28;20686;-78
2020/12/04 00:17:14;;;;;;;15.30;9.88;;;3.20;99.90;;;;;;4974204;28;20042;-74
2020/12/04 00:19:40;;;;;;;17.83;11.73;;;3.30;99.90;;;;;;4974672;28;20031;-80
2020/12/04 00:22:06;;;;;;;19.88;11.73;;;3.30;99.90;;;;;;4987628;28;20019;-79
2020/12/04 00:24:31;;;;;;;17.10;11.55;;;3.20;99.90;;;;;;4972624;28;20030;-80
2020/12/04 00:26:58;;;;;;;16.38;11.75;;;3.10;99.90;;;;;;4972684;28;20027;-79
2020/12/04 00:29:26;;;;;;;17.35;11.38;;;3.00;99.90;;;;;;4971734;28;20025;-80
2020/12/04 00:31:52;;;;;;;14.95;10.43;;;3.00;99.90;;;;;;4972057;28;20034;-80
2020/12/04 00:34:18;;;;;;;15.60;10.32;;;3.00;99.90;;;;;;4971529;28;20110;-79
2020/12/04 00:36:53;;;;;;;17.33;10.57;;;2.90;99.90;;;;;;4973441;28;20430;-79
2020/12/04 00:39:19;;;;;;;14.93;10.32;;;2.90;99.90;;;;;;4988304;28;20083;-80
2020/12/04 00:41:44;;;;;;;15.70;11.18;;;2.90;99.90;;;;;;4971467;28;20486;-81
2020/12/04 00:44:11;;;;;;;16.00;10.57;;;3.00;99.90;;;;;;4971501;28;20027;-81
2020/12/04 00:46:37;;;;;;;16.35;10.73;;;2.80;99.90;;;;;;4970624;28;20035;-77
2020/12/04 00:49:03;;;;;;;16.10;10.15;;;2.70;99.90;;;;;;4970011;28;20035;-76
2020/12/04 00:51:29;;;;;;;14.15;10.02;;;2.90;99.90;;;;;;4969893;28;20027;-78
2020/12/04 00:53:55;;;;;;;15.25;9.68;;;2.90;99.90;;;;;;4971057;28;20027;-77
2020/12/04 00:56:22;;;;;;;17.50;11.60;;;2.70;99.90;;;;;;4965563;28;20217;-77
2020/12/04 00:58:50;;;;;;;22.27;12.45;;;2.40;99.90;;;;;;4953199;28;20513;-78
2020/12/04 01:01:16;;;;;;;18.90;12.27;;;2.50;99.90;;;;;;4952093;28;20063;-80
2020/12/04 01:03:42;;;;;;;18.60;11.65;;;2.30;99.90;;;;;;4952595;28;20037;-77
2020/12/04 01:06:12;;;;;;;18.65;12.20;;;2.30;99.90;;;;;;4951942;28;20027;-77
2020/12/04 01:08:38;;;;;;;19.30;12.25;;;2.30;99.90;;;;;;4950989;28;20091;-76
2020/12/04 01:11:03;;;;;;;20.05;12.30;;;2.30;99.90;;;;;;4954948;28;20059;-76
2020/12/04 01:13:29;;;;;;;20.98;12.77;;;2.20;99.90;;;;;;4955832;28;20019;-77
2020/12/04 01:15:55;;;;;;;18.73;12.68;;;2.30;99.90;;;;;;4957856;28;20549;-77
2020/12/04 01:18:21;;;;;;;21.60;13.18;;;2.40;99.90;;;;;;4976556;28;20482;-76
2020/12/04 01:20:46;;;;;;;21.23;12.48;;;2.40;99.90;;;;;;4975755;28;20066;-78
2020/12/04 01:23:12;;;;;;;18.45;11.52;;;2.50;99.90;;;;;;4990049;28;20394;-77
2020/12/04 01:25:37;;;;;;;17.23;11.45;;;2.00;99.90;;;;;;4975100;28;20102;-76
2020/12/04 01:28:03;;;;;;;17.85;11.40;;;;;;;;;;4975173;28;20035;-77
2020/12/04 01:30:29;;;;;;;18.38;11.60;;;;;;;;;;4974579;28;20043;-77
2020/12/04 01:32:55;;;;;;;17.63;11.88;;;;;;;;;;4989515;28;20118;-75
2020/12/04 01:35:21;;;;;;;16.25;11.27;;;;;;;;;;4989403;28;20149;-77
2020/12/04 01:37:47;;;;;;;18.45;11.88;;;;;;;;;;4974127;28;20046;-75
2020/12/04 01:40:13;;;;;;;17.30;11.38;;;;;;;;;;4976328;28;20110;-79
2020/12/04 01:42:39;;;;;;;17.58;11.32;;;;;;;;;;4978558;28;20119;-78
2020/12/04 01:45:05;;;;;;;17.50;11.27;;;;;;;;;;4992091;28;20034;-79
2020/12/04 01:47:31;;;;;;;16.67;11.25;;;;;;;;;;4976837;28;20148;-78
2020/12/04 01:49:57;;;;;;;16.58;11.35;;;;;;;;;;4975642;28;20114;-78
2020/12/04 01:52:27;;;;;;;16.23;10.60;;;;;;;;;;4975064;28;20085;-79
2020/12/04 01:54:53;;;;;;;17.48;10.68;;;;;;;;;;4975576;28;20521;-79
2020/12/04 01:57:20;;;;;;;16.27;10.75;;;;;;;;;;4991345;28;20022;-79
2020/12/04 01:59:46;;;;;;;15.05;9.90;;;;;;;;;;4976152;28;20023;-79
2020/12/04 02:02:23;;;;;;;15.88;10.40;;;;;;;;;;4974799;28;20202;-78
2020/12/04 02:04:50;;;;;;;16.85;10.95;;;;;;;;;;4991456;28;20023;-79
2020/12/04 02:07:32;;;;;;;15.48;10.25;;;;;;;;;;4976024;28;20034;-81
2020/12/04 02:10:01;;;;;;;16.98;11.10;;;;;;;;;;4991318;28;20548;-79
2020/12/04 02:12:28;;;;;;;18.20;10.88;;;;;;;;;;4991270;28;20034;-78
2020/12/04 02:14:54;;;;;;;16.60;11.57;;;;;;;;;;4991153;28;20118;-78
2020/12/04 02:17:33;;;;;;;15.43;10.48;;;;;;;;;;4975954;28;20057;-81
2020/12/04 02:20:00;;;;;;;15.95;10.63;;;;;;;;;;4976662;28;20026;-80
2020/12/04 02:22:33;;;;;;;16.63;10.65;;;;;;;;;;4974755;28;20042;-80
2020/12/04 02:24:59;;;;;;;16.38;10.48;;;;;;;;;;4989811;28;20113;-81
2020/12/04 02:27:25;;;;;;;17.80;10.68;;;;;;;;;;4990563;28;20023;-79
2020/12/04 02:29:51;;;;;;;19.45;11.93;;;;;;;;;;4975396;28;20031;-81
2020/12/04 02:32:17;;;;;;;17.60;11.15;;;;;;;;;;4990050;28;20057;-79
2020/12/04 02:34:43;;;;;;;18.10;11.68;;;;;;;;;;4990146;28;20031;-78
2020/12/04 02:37:10;;;;;;;19.40;13.02;;;;;;;;;;4990097;28;20019;-79
2020/12/04 02:39:36;;;;;;;18.38;11.68;;;;;;;;;;4985214;28;20107;-80
2020/12/04 02:42:03;;;;;;;18.90;12.57;;;;;;;;;;4955898;28;20074;-79
2020/12/04 02:44:29;;;;;;;20.10;12.93;;;;;;;;;;4955077;28;20111;-79
2020/12/04 02:46:55;;;;;;;17.90;12.32;;;;;;;;;;4956103;28;20077;-78
2020/12/04 02:49:21;;;;;;;19.38;13.13;;;;;;;;;;4955583;28;20027;-78
2020/12/04 02:51:50;;;;;;;22.08;13.73;;;1.90;99.90;;;;;;4986774;28;20027;-81
2020/12/04 02:54:17;;;;;;;20.40;12.98;;;1.80;99.90;;;;;;4953580;28;20532;-80
2020/12/04 02:56:43;;;;;;;20.70;13.05;;;;;;;;;;4954225;28;20034;-78
2020/12/04 02:59:09;;;;;;;21.17;13.95;;;;;;;;;;4994665;28;20050;-80
2020/12/04 03:01:35;;;;;;;22.17;14.00;;;;;;;;;;4995792;28;20030;-80
2020/12/04 03:04:01;;;;;;;19.75;13.32;;;;;;;;;;4995606;28;20112;-80
2020/12/04 03:06:27;;;;;;;20.45;12.98;;;;;;;;;;4996522;28;20034;-78
2020/12/04 03:08:53;;;;;;;20.02;12.90;;;;;;;;;;4994791;28;20031;-79
2020/12/04 03:11:20;;;;;;;23.35;11.98;;;;;;;;;;4996932;28;20110;-79
2020/12/04 03:13:46;;;;;;;19.90;12.38;;;;;;;;;;4996923;28;20022;-79
2020/12/04 03:16:12;;;;;;;19.38;12.48;;;;;;;;;;4991758;28;20379;-79
2020/12/04 03:18:38;;;;;;;19.17;11.38;;;;;;;;;;4993527;28;20478;-80
2020/12/04 03:21:04;;;;;;;16.55;11.05;;;;;;;;;;4992963;28;20041;-80
2020/12/04 03:23:30;;;;;;;18.90;12.20;;;;;;;;;;4992470;28;20023;-79
2020/12/04 03:25:56;;;;;;;17.92;11.82;;;;;;;;;;4977525;28;20042;-80
2020/12/04 03:28:22;;;;;;;18.83;12.07;;;;;;;;;;4977199;28;20030;-79
2020/12/04 03:30:48;;;;;;;19.83;12.23;;;;;;;;;;4994428;28;20038;-80
2020/12/04 03:33:14;;;;;;;20.33;12.35;;;;;;;;;;4993179;28;20110;-78
2020/12/04 03:35:40;;;;;;;19.90;11.55;;;;;;;;;;4979407;28;20097;-78
2020/12/04 03:38:06;;;;;;;18.83;12.43;;;;;;;;;;4993042;28;20512;-79
2020/12/04 03:40:32;;;;;;;22.38;13.05;;;;;;;;;;4979428;28;20035;-78
2020/12/04 03:42:58;;;;;;;21.67;13.07;;;;;;;;;;4978938;28;20102;-79
2020/12/04 03:45:24;;;;;;;21.38;13.40;;;;;;;;;;4977264;28;20242;-79
2020/12/04 03:47:50;;;;;;;20.63;13.23;;;;;;;;;;4977058;28;20033;-80
2020/12/04 03:50:16;;;;;;;19.70;13.05;;;1.80;99.90;;;;;;4976866;28;20019;-80
2020/12/04 03:52:42;;;;;;;18.83;12.35;;;2.00;99.90;;;;;;4975398;28;20027;-80
2020/12/04 03:55:07;;;;;;;21.10;13.75;;;2.20;99.90;;;;;;4976708;28;20090;-80
2020/12/04 03:57:33;;;;;;;21.30;13.40;;;;;;;;;;4990815;28;20129;-79
2020/12/04 03:59:59;;;;;;;19.33;12.82;;;;;;;;;;4990969;28;20129;-80
2020/12/04 04:02:26;;;;;;;19.88;12.57;;;;;;;;;;4975092;28;20144;-80
2020/12/04 04:04:52;;;;;;;21.45;13.93;;;;;;;;;;4980514;28;20026;-78
2020/12/04 04:07:18;;;;;;;19.67;12.73;;;;;;;;;;4972773;28;20023;-79
2020/12/04 04:09:44;;;;;;;20.02;12.13;;;;;;;;;;4973503;28;20027;-80
2020/12/04 04:12:10;;;;;;;19.08;12.45;;;;;;;;;;4973889;28;20027;-79
2020/12/04 04:14:36;;;;;;;20.73;12.07;;;;;;;;;;4973181;28;20038;-80
2020/12/04 04:17:02;;;;;;;19.38;12.25;;;;;;;;;;4974097;28;20042;-79
2020/12/04 04:19:28;;;;;;;18.38;12.00;;;;;;;;;;4973241;28;20114;-81
2020/12/04 04:21:55;;;;;;;19.25;11.20;;;;;;;;;;4988124;28;20135;-79
2020/12/04 04:24:21;;;;;;;18.23;11.52;;;;;;;;;;4973691;28;20031;-84
2020/12/04 04:26:48;;;;;;;16.52;11.18;;;;;;;;;;4973444;28;20023;-79
2020/12/04 04:29:14;;;;;;;16.50;10.52;;;2.20;99.90;;;;;;4988585;28;20042;-81
2020/12/04 04:31:40;;;;;;;18.10;10.85;;;2.90;99.90;;;;;;4972294;28;20031;-80
2020/12/04 04:34:06;;;;;;;18.48;11.15;;;3.00;99.90;;;;;;4972800;28;20054;-81
2020/12/04 04:36:32;;;;;;;15.02;10.02;;;2.90;99.90;;;;;;4973550;28;20022;-79
2020/12/04 04:38:57;;;;;;;17.52;10.88;;;3.10;99.90;;;;;;4971565;28;20416;-79
2020/12/04 04:41:23;;;;;;;15.60;10.25;;;3.00;99.90;;;;;;4972870;28;20043;-80
2020/12/04 04:43:49;;;;;;;19.30;12.75;;;3.10;99.90;;;;;;4972746;28;20034;-80
2020/12/04 04:46:16;;;;;;;18.83;12.32;;;2.70;99.90;;;;;;4974251;28;20034;-79
2020/12/04 04:48:56;;;;;;;20.98;13.65;;;2.40;99.90;;;;;;4991515;28;20030;-79
2020/12/04 04:51:23;;;;;;;18.88;12.82;;;2.40;99.90;;;;;;4975317;28;20182;-80
2020/12/04 04:53:56;;;;;;;20.27;13.70;;;2.30;99.90;;;;;;4976519;28;20390;-81
2020/12/04 04:56:22;;;;;;;20.92;14.45;;;2.40;99.90;;;;;;4975410;28;20029;-81
2020/12/04 04:58:48;;;;;;;22.10;13.57;;;;;;;;;;4975052;28;20035;-80
2020/12/04 05:01:14;;;;;;;20.45;13.57;;;;;;;;;;4991349;28;20027;-81
2020/12/04 05:03:40;;;;;;;22.08;13.15;;;;;;;;;;4976076;28;20371;-79
2020/12/04 05:06:06;;;;;;;20.25;13.05;;;;;;;;;;4990537;28;20105;-79
2020/12/04 05:08:32;;;;;;;23.00;12.60;;;;;;;;;;4976235;28;20022;-79
2020/12/04 05:11:08;;;;;;;17.42;11.25;;;2.10;99.90;;;;;;4991278;28;20030;-78
2020/12/04 05:13:34;;;;;;;16.98;10.70;;;2.40;99.90;;;;;;4976065;28;20026;-81
2020/12/04 05:16:00;;;;;;;13.82;9.57;;;2.70;99.90;;;;;;4975565;28;20046;-79
2020/12/04 05:18:25;;;;;;;20.08;12.18;;;2.80;99.90;;;;;;4975758;28;20393;-79
2020/12/04 05:20:53;;;;;;;22.67;13.98;;;3.00;99.90;;;;;;4974622;28;20058;-80
2020/12/04 05:23:20;;;;;;;24.08;14.23;;;2.90;99.90;;;;;;4976195;28;20046;-78
2020/12/04 05:25:51;;;;;;;22.50;14.45;;;2.80;99.90;;;;;;4974675;28;20031;-81
2020/12/04 05:28:20;;;;;;;20.15;12.88;;;2.70;99.90;;;;;;4976426;28;20430;-79
2020/12/04 05:31:09;;;;;;;25.80;17.25;;;2.60;99.90;;;;;;4976322;28;20038;-79
2020/12/04 05:33:35;;;;;;;24.88;15.80;;;2.30;99.90;;;;;;4974349;28;20046;-78
2020/12/04 05:36:02;;;;;;;25.55;15.60;;;2.50;99.90;;;;;;4975666;28;20107;-79
2020/12/04 05:38:28;;;;;;;18.17;12.27;;;2.70;99.90;;;;;;4990607;28;20027;-78
2020/12/04 05:41:04;;;;;;;20.58;12.93;;;2.80;99.90;;;;;;4975572;28;20400;-80
2020/12/04 05:43:32;;;;;;;21.23;12.98;;;2.90;99.90;;;;;;4975216;28;20107;-80
2020/12/04 05:46:11;;;;;;;;;;;2.90;99.90;;;;;;4990466;28;20034;-82
2020/12/04 05:48:36;;;;;;;18.30;12.00;;;2.90;99.90;;;;;;4975305;28;19952;-78
2020/12/04 05:51:02;;;;;;;20.75;12.35;;;3.00;99.90;;;;;;4989223;28;20315;-80
2020/12/04 05:53:28;;;;;;;18.73;12.20;;;3.00;99.90;;;;;;4972309;28;20602;-78
2020/12/04 05:55:54;;;;;;;21.25;13.07;;;3.00;99.90;;;;;;4973085;28;20026;-79
2020/12/04 05:58:25;;;;;;;19.33;12.52;;;2.70;99.90;;;;;;4973333;28;20031;-79
2020/12/04 06:00:51;;;;;;;20.42;12.50;;;2.70;99.90;;;;;;4973273;28;20033;-82
2020/12/04 06:03:17;;;;;;;19.15;12.98;;;2.80;99.90;;;;;;4973224;28;20034;-82
2020/12/04 06:05:42;;;;;;;20.50;12.35;;;2.90;99.90;;;;;;4973358;28;20026;-79
2020/12/04 06:08:09;;;;;;;19.77;12.82;;;2.80;99.90;;;;;;4973748;28;20121;-80
2020/12/04 06:10:35;;;;;;;24.13;14.93;;;2.50;99.90;;;;;;4973677;28;20067;-81
2020/12/04 06:13:01;;;;;;;31.92;18.52;;;2.20;99.90;;;;;;4974288;28;20054;-78
2020/12/04 06:15:28;;;;;;;24.88;15.95;;;2.00;99.90;;;;;;4974698;28;20031;-80
2020/12/04 06:18:20;;;;;;;24.48;16.08;;;;;;;;;;4974035;28;20019;-84
2020/12/04 06:20:47;;;;;;;24.58;15.27;;;;;;;;;;4976708;28;20046;-77
2020/12/04 06:23:15;;;;;;;23.13;14.60;;;;;;;;;;4975304;28;20057;-79
2020/12/04 06:26:10;;;;;;;24.42;14.63;;;;;;;;;;4975715;28;20141;-79
2020/12/04 06:28:40;;;;;;;22.05;13.80;;;;;;;;;;4978037;28;20079;-78
2020/12/04 06:31:08;;;;;;;21.35;13.60;;;;;;;;;;4976427;28;20026;-77
2020/12/04 06:33:38;;;;;;;22.90;13.93;;;;;;;;;;4977332;28;20031;-78
2020/12/04 06:36:05;;;;;;;22.77;13.32;;;;;;;;;;4975284;28;20038;-79
2020/12/04 06:38:38;;;;;;;22.70;13.88;;;;;;;;;;4976058;28;20062;-78
2020/12/04 06:41:33;;;;;;;22.15;14.40;;;1.80;99.90;;;;;;4975496;28;20058;-78
2020/12/04 06:44:00;;;;;;;21.17;13.90;;;2.60;99.90;;;;;;4977125;28;20027;-77
2020/12/04 06:46:43;;;;;;;22.30;13.10;;;2.70;99.90;;;;;;4975995;28;20073;-78
2020/12/04 06:49:09;;;;;;;20.00;13.00;;;2.70;99.90;;;;;;4975949;28;20031;-80
2020/12/04 06:51:36;;;;;;;21.58;13.57;;;2.70;99.90;;;;;;4991777;28;20022;-79
2020/12/04 06:54:02;;;;;;;21.17;13.35;;;2.50;99.90;;;;;;4975990;28;20026;-77
2020/12/04 06:56:28;;;;;;;23.23;14.93;;;2.60;99.90;;;;;;4977203;28;20130;-76
2020/12/04 06:58:53;;;;;;;24.02;14.70;;;2.20;99.90;;;;;;4976487;28;20047;-77
2020/12/04 07:01:19;;;;;;;22.52;14.57;;;2.20;99.90;;;;;;4976661;28;20030;-80
2020/12/04 07:03:46;;;;;;;24.75;14.48;;;2.20;99.90;;;;;;4975530;28;20038;-79
2020/12/04 07:06:19;;;;;;;24.70;14.90;;;2.00;99.90;;;;;;4976253;28;20026;-78
2020/12/04 07:09:03;;;;;;;26.00;15.95;;;2.10;99.90;;;;;;4974929;28;20033;-80
2020/12/04 07:11:30;;;;;;;22.23;14.82;;;2.20;99.90;;;;;;4977261;28;20098;-80
2020/12/04 07:13:57;;;;;;;26.10;13.90;;;2.60;99.90;;;;;;4974845;28;20023;-74
2020/12/04 07:16:24;;;;;;;24.48;14.88;;;2.70;99.90;;;;;;4975633;28;20383;-76
2020/12/04 07:18:52;;;;;;;23.77;14.23;;;2.70;99.90;;;;;;4976907;28;20037;-76
2020/12/04 07:21:19;;;;;;;24.13;14.77;;;2.70;99.90;;;;;;4974945;28;20031;-79
2020/12/04 07:23:44;;;;;;;24.75;14.98;;;2.20;99.90;;;;;;4975103;28;20545;-80
2020/12/04 07:26:18;;;;;;;62.45;34.75;;;2.40;99.90;;;;;;4974522;28;20671;-80
2020/12/04 07:28:45;;;;;;;26.90;16.65;;;2.20;99.90;;;;;;4976625;28;20485;-79
2020/12/04 07:31:16;;;;;;;26.58;16.13;;;1.80;99.90;;;;;;4976373;28;20382;-78
2020/12/04 07:33:56;;;;;;;48.33;28.73;;;2.00;99.90;;;;;;4976603;28;20034;-80
2020/12/04 07:36:22;;;;;;;33.67;20.40;;;1.90;99.90;;;;;;4974562;28;20034;-80
2020/12/04 07:38:59;;;;;;;24.90;15.68;;;2.00;99.90;;;;;;4975946;28;20109;-79
2020/12/04 07:41:39;;;;;;;22.33;13.98;;;2.10;99.90;;;;;;4974339;28;20094;-78
2020/12/04 07:44:07;;;;;;;20.63;12.63;;;2.40;99.90;;;;;;4973274;28;20045;-78
2020/12/04 07:46:34;;;;;;;25.25;13.98;;;2.60;99.90;;;;;;4974204;28;20113;-80
2020/12/04 07:49:07;;;;;;;26.50;16.80;;;2.60;99.90;;;;;;4974872;28;20027;-77
2020/12/04 07:51:38;;;;;;;27.90;15.63;;;2.30;99.90;;;;;;4973470;28;20258;-77
2020/12/04 07:54:06;;;;;;;22.42;14.07;;;2.40;99.90;;;;;;4972014;28;20065;-76
2020/12/04 07:56:34;;;;;;;24.10;14.00;;;2.60;99.90;;;;;;4972657;28;20033;-76
2020/12/04 07:59:05;;;;;;;28.67;15.95;;;2.70;99.90;;;;;;4974834;28;20042;-78
2020/12/04 08:01:39;;;;;;;26.70;14.05;;;2.80;99.90;;;;;;4976321;28;20090;-79
2020/12/04 08:04:04;;;;;;;20.70;12.25;;;3.00;99.90;;;;;;4976318;28;20105;-78
2020/12/04 08:06:30;;;;;;;31.17;14.95;;;3.10;99.90;;;;;;4974318;28;20069;-78
2020/12/04 08:09:10;;;;;;;25.90;16.67;;;3.10;99.90;;;;;;4971546;28;20532;-83
2020/12/04 08:11:39;;;;;;;31.40;17.65;;;2.20;99.90;;;;;;4972576;28;20117;-80
2020/12/04 08:14:05;;;;;;;24.33;14.57;;;2.00;99.90;;;;;;4970011;28;20030;-80
2020/12/04 08:16:33;;;;;;;31.33;16.83;;;2.30;99.90;;;;;;4970789;28;20066;-79
2020/12/04 08:19:12;;;;;;;28.48;16.10;;;2.50;99.90;;;;;;4970810;28;20038;-80
2020/12/04 08:22:03;;;;;;;32.53;20.42;;;2.50;99.90;;;;;;4970892;28;20030;-80
2020/12/04 08:24:31;;;;;;;28.00;18.65;;;2.30;99.90;;;;;;4971856;28;20050;-78
2020/12/04 08:27:06;;;;;;;31.10;18.15;;;2.20;99.90;;;;;;4972326;28;20026;-79
2020/12/04 08:29:35;;;;;;;33.53;20.45;;;2.20;99.90;;;;;;4973172;28;20509;-83
2020/12/04 08:32:08;;;;;;;30.17;16.42;;;2.30;99.90;;;;;;4971954;28;20117;-79
2020/12/04 08:34:35;;;;;;;22.92;14.45;;;2.70;99.90;;;;;;4966567;28;20084;-77
2020/12/04 08:37:03;;;;;;;23.85;14.07;;;3.00;99.90;;;;;;4973062;28;20026;-78
2020/12/04 08:39:39;;;;;;;23.65;13.25;;;3.20;99.90;;;;;;4968710;28;20394;-80
2020/12/04 08:42:22;;;;;;;26.00;13.93;;;3.40;99.90;;;;;;4968282;28;20027;-80
2020/12/04 08:45:04;;;;;;;27.55;14.02;;;3.40;99.90;;;;;;4969527;28;20111;-78
2020/12/04 08:47:33;;;;;;;22.40;13.85;;;3.60;99.90;;;;;;4970253;28;20097;-78
2020/12/04 08:50:14;;;;;;;28.67;14.18;;;3.70;99.90;;;;;;4984571;28;20030;-78
2020/12/04 08:52:43;;;;;;;25.90;14.50;;;3.90;99.90;;;;;;4968642;28;20019;-80
2020/12/04 08:55:20;;;;;;;27.35;16.10;;;4.00;99.90;;;;;;4968421;28;20637;-79
2020/12/04 08:57:47;;;;;;;36.03;20.58;;;4.00;99.90;;;;;;4969495;28;20031;-80
2020/12/04 09:00:16;;;;;;;36.58;21.45;;;4.00;99.90;;;;;;4969837;28;20122;-79
2020/12/04 09:02:42;;;;;;;34.22;20.27;;;4.10;99.90;;;;;;4970710;28;20106;-79
2020/12/04 09:05:10;;;;;;;30.70;18.75;;;4.20;99.90;;;;;;4968926;28;20023;-79
2020/12/04 09:07:37;;;;;;;29.52;18.35;;;4.20;99.90;;;;;;4970032;28;20088;-76
2020/12/04 09:10:05;;;;;;;27.33;16.75;;;4.30;99.90;;;;;;4989133;28;20034;-79
2020/12/04 09:12:31;;;;;;;34.13;20.15;;;4.00;99.90;;;;;;4974058;28;20019;-77
2020/12/04 09:14:56;;;;;;;36.75;17.52;;;3.60;99.90;;;;;;4970662;28;20031;-75
2020/12/04 09:17:22;;;;;;;32.85;17.40;;;3.50;99.90;;;;;;4964517;28;20039;-79
2020/12/04 09:19:48;;;;;;;27.08;17.50;;;3.30;99.90;;;;;;4955964;29;20031;-77
2020/12/04 09:22:15;;;;;;;24.23;16.13;;;3.20;99.90;;;;;;4969042;28;20038;-77
2020/12/04 09:24:42;;;;;;;29.50;17.10;;;3.40;99.90;;;;;;4973111;28;20029;-79
2020/12/04 09:27:07;;;;;;;29.93;17.13;;;3.40;99.90;;;;;;4974622;28;20647;-84
2020/12/04 09:29:34;;;;;;;26.75;17.23;;;3.20;99.90;;;;;;4971663;28;20278;-82
2020/12/04 09:32:27;;;;;;;25.63;14.88;;;3.20;99.90;;;;;;4973912;28;20046;-76
2020/12/04 09:34:53;;;;;;;24.60;12.82;;;3.10;99.90;;;;;;4978537;28;20031;-76
2020/12/04 09:37:29;;;;;;;22.83;12.68;;;3.10;99.90;;;;;;4977241;28;20023;-77
2020/12/04 09:40:02;;;;;;;24.67;12.00;;;3.30;99.90;;;;;;4974799;28;20027;-79
2020/12/04 09:42:28;;;;;;;11.88;7.20;;;3.10;99.90;;;;;;4978358;28;20026;-77
2020/12/04 09:44:55;;;;;;;23.95;10.60;;;3.30;99.90;;;;;;4977007;28;20065;-79
2020/12/04 09:47:22;;;;;;;20.40;11.65;;;3.70;99.90;;;;;;4993397;28;20027;-79
2020/12/04 09:49:48;;;;;;;24.70;11.27;;;3.90;99.90;;;;;;4993071;28;20106;-76
2020/12/04 09:52:16;;;;;;;20.88;11.52;;;3.90;99.90;;;;;;4976298;28;20041;-78
2020/12/04 09:54:43;;;;;;;27.35;14.10;;;4.00;99.90;;;;;;4976536;28;20026;-80
2020/12/04 09:57:10;;;;;;;28.67;16.80;;;4.10;99.90;;;;;;4990677;28;20084;-81
2020/12/04 09:59:36;;;;;;;35.43;20.30;;;4.10;99.90;;;;;;4988556;28;20031;-79
2020/12/04 10:02:03;;;;;;;37.30;20.48;;;3.90;99.90;;;;;;4972131;28;20312;-77
2020/12/04 10:04:29;;;;;;;29.52;17.25;;;3.50;99.90;;;;;;4989444;28;20022;-80
2020/12/04 10:06:55;;;;;;;28.13;15.98;;;3.40;99.90;;;;;;4975994;28;20076;-76
2020/12/04 10:09:22;;;;;;;30.77;16.45;;;3.60;99.90;;;;;;4978074;28;20029;-77
2020/12/04 10:11:48;;;;;;;29.52;17.55;;;3.60;99.90;;;;;;4992384;28;20023;-79
2020/12/04 10:14:14;;;;;;;29.02;18.25;;;3.60;99.90;;;;;;4976182;28;20023;-79
2020/12/04 10:16:41;;;;;;;30.00;17.88;;;3.60;99.90;;;;;;4977678;28;20226;-80
2020/12/04 10:19:07;;;;;;;30.35;17.83;;;3.70;99.90;;;;;;4978637;28;20027;-75
2020/12/04 10:21:34;;;;;;;33.20;18.10;;;3.60;99.90;;;;;;4976939;28;20118;-78
2020/12/04 10:24:00;;;;;;;53.08;27.15;;;3.50;99.90;;;;;;4976492;28;20119;-77
2020/12/04 10:26:26;;;;;;;45.45;24.40;;;3.50;99.90;;;;;;4977642;28;20061;-80
2020/12/04 10:28:51;;;;;;;38.40;20.65;;;3.70;99.90;;;;;;4976605;28;20042;-79
2020/12/04 10:31:17;;;;;;;33.50;19.60;;;3.90;99.90;;;;;;4976108;28;20026;-78
2020/12/04 10:33:43;;;;;;;34.45;19.52;;;4.00;99.90;;;;;;4976558;28;20058;-81
2020/12/04 10:36:08;;;;;;;29.38;18.58;;;3.80;99.90;;;;;;4975079;28;20030;-79
2020/12/04 10:38:34;;;;;;;33.80;20.20;;;3.50;99.90;;;;;;4989824;28;20027;-79
2020/12/04 10:40:59;;;;;;;34.33;17.55;;;3.50;99.90;;;;;;4975184;28;20027;-79
2020/12/04 10:43:25;;;;;;;32.63;17.33;;;3.60;99.90;;;;;;4974116;28;20470;-79
2020/12/04 10:45:52;;;;;;;31.92;17.02;;;4.00;99.90;;;;;;4974994;28;20096;-78
2020/12/04 10:48:18;;;;;;;28.58;14.90;;;4.20;99.90;;;;;;4973440;28;20466;-79
2020/12/04 10:50:45;;;;;;;25.33;15.07;;;4.40;99.90;;;;;;4972225;28;20031;-79
2020/12/04 10:53:11;;;;;;;40.25;18.73;;;4.60;99.90;;;;;;4971333;28;20101;-79
2020/12/04 10:55:37;;;;;;;118.57;45.55;;;4.70;99.90;;;;;;4988259;28;20029;-78
2020/12/04 10:58:03;;;;;;;25.90;14.82;;;4.50;99.90;;;;;;4971013;28;20114;-79
2020/12/04 11:00:30;;;;;;;27.88;15.70;;;4.20;99.90;;;;;;4972622;28;20106;-81
2020/12/04 11:03:11;;;;;;;32.35;15.38;;;4.20;99.90;;;;;;4972629;28;20094;-79
2020/12/04 11:05:39;;;;;;;26.10;14.13;;;4.20;99.90;;;;;;4971198;28;20446;-79
2020/12/04 11:08:05;;;;;;;30.15;15.65;;;4.40;99.90;;;;;;4973248;28;20015;-79
2020/12/04 11:10:32;;;;;;;143.88;53.55;;;4.40;99.90;;;;;;4972635;28;20050;-79
2020/12/04 11:12:58;;;;;;;74.45;33.40;;;4.00;99.90;;;;;;4972339;28;20098;-77
2020/12/04 11:15:24;;;;;;;44.38;22.05;;;3.80;99.90;;;;;;4974923;28;20058;-79
2020/12/04 11:17:52;;;;;;;31.27;17.25;;;3.80;99.90;;;;;;4987079;28;20027;-78
2020/12/04 11:20:17;;;;;;;;;;;4.00;99.90;;;;;;4973053;28;20358;-79
2020/12/04 11:22:43;;;;;;;27.77;15.65;;;4.10;99.90;;;;;;4988659;28;19998;-76
2020/12/04 11:25:09;;;;;;;26.30;17.08;;;4.30;99.90;;;;;;4973759;28;20096;-77
2020/12/04 11:27:41;;;;;;;27.83;16.40;;;4.50;99.90;;;;;;4973899;28;20029;-78
2020/12/04 11:30:07;;;;;;;29.95;16.20;;;4.70;99.90;;;;;;4974040;28;20031;-78
2020/12/04 11:32:34;;;;;;;24.70;13.50;;;4.90;99.90;;;;;;4972602;28;20023;-79
2020/12/04 11:35:00;;;;;;;28.15;14.02;;;4.90;99.90;;;;;;4971603;28;20026;-79
2020/12/04 11:37:25;;;;;;;23.98;13.07;;;4.90;99.90;;;;;;4971641;28;20035;-79
2020/12/04 11:39:51;;;;;;;26.25;15.32;;;4.90;99.90;;;;;;4971543;28;20038;-80
2020/12/04 11:42:17;;;;;;;32.42;17.48;;;4.80;99.90;;;;;;4970276;28;20027;-79
2020/12/04 11:44:42;;;;;;;37.67;19.10;;;4.50;99.90;;;;;;4971503;28;20042;-79
2020/12/04 11:47:08;;;;;;;33.92;20.00;;;4.40;99.90;;;;;;4971909;28;20061;-79
2020/12/04 11:49:34;;;;;;;31.05;17.63;;;4.40;99.90;;;;;;4971717;28;20039;-80
2020/12/04 11:51:59;;;;;;;76.90;47.17;;;4.20;99.90;;;;;;4971468;28;20023;-80
2020/12/04 11:54:25;;;;;;;35.15;21.92;;;4.00;99.90;;;;;;4969093;28;20613;-79
2020/12/04 11:56:51;;;;;;;28.80;16.73;;;4.10;99.90;;;;;;4970461;28;20522;-79
2020/12/04 11:59:19;;;;;;;30.55;19.27;;;4.30;99.90;;;;;;4971987;28;20132;-80
2020/12/04 12:01:46;;;;;;;27.05;13.68;;;4.40;99.90;;;;;;4971925;28;20027;-79
2020/12/04 12:04:14;;;;;;;31.73;16.30;;;4.70;99.90;;;;;;4971622;28;20081;-79
2020/12/04 12:06:41;;;;;;;84.88;43.67;;;4.70;99.90;;;;;;4972143;28;20045;-79
2020/12/04 12:09:07;;;;;;;30.15;13.60;;;4.70;99.90;;;;;;4971253;28;20101;-78
2020/12/04 12:11:33;;;;;;;21.77;12.43;;;4.60;99.90;;;;;;4970765;28;20059;-81
2020/12/04 12:13:59;;;;;;;26.98;12.38;;;4.70;99.90;;;;;;4986435;28;20498;-80
2020/12/04 12:16:24;;;;;;;20.77;12.38;;;4.50;99.90;;;;;;4986655;28;20047;-80
2020/12/04 12:18:50;;;;;;;21.38;12.38;;;4.60;99.90;;;;;;4970514;28;20061;-78
2020/12/04 12:21:16;;;;;;;25.15;12.65;;;4.80;99.90;;;;;;4971606;28;20066;-84
2020/12/04 12:23:42;;;;;;;25.27;12.93;;;5.10;99.90;;;;;;4970001;28;20129;-80
2020/12/04 12:26:22;;;;;;;21.60;12.35;;;5.10;99.90;;;;;;4970297;28;20106;-80
2020/12/04 12:28:48;;;;;;;22.52;12.45;;;5.30;99.90;;;;;;4970557;28;20158;-79
2020/12/04 12:31:13;;;;;;;21.33;11.50;;;5.40;99.90;;;;;;4970895;28;20114;-78
2020/12/04 12:33:39;;;;;;;24.67;12.30;;;5.60;99.90;;;;;;4971816;28;20131;-79
2020/12/04 12:36:05;;;;;;;18.98;10.85;;;5.60;99.90;;;;;;4971466;28;20097;-78
2020/12/04 12:38:31;;;;;;;22.10;11.30;;;5.70;99.90;;;;;;4971190;28;20397;-80
2020/12/04 12:40:57;;;;;;;20.48;11.52;;;5.80;99.90;;;;;;4971489;28;20102;-81
2020/12/04 12:43:23;;;;;;;19.65;12.30;;;5.80;99.90;;;;;;4970098;28;20037;-83
2020/12/04 12:45:48;;;;;;;20.63;12.20;;;5.90;99.90;;;;;;4971604;28;20030;-78
2020/12/04 12:48:14;;;;;;;21.65;13.07;;;5.90;99.90;;;;;;4971523;28;20486;-82
2020/12/04 12:50:39;;;;;;;31.27;17.92;;;6.00;99.90;;;;;;4971624;28;20077;-79
2020/12/04 12:53:05;;;;;;;36.08;22.77;;;6.00;99.90;;;;;;4986395;28;20030;-78
2020/12/04 12:55:31;;;;;;;29.95;14.25;;;5.90;99.90;;;;;;4970702;28;20027;-78
2020/12/04 12:57:56;;;;;;;27.38;12.85;;;5.70;99.90;;;;;;4970954;28;20026;-78
2020/12/04 13:00:22;;;;;;;31.00;13.25;;;5.80;99.90;;;;;;4956795;28;20027;-79
2020/12/04 13:02:48;;;;;;;38.50;15.65;;;5.70;99.90;;;;;;4952874;28;20051;-77
2020/12/04 13:07:57;;;;;;;42.08;17.52;;;5.90;99.90;;;;;;4956144;29;20034;-81